Terminal Aerodrome Forecast
Issued by NWS

Current Version | Previous Version | Text Only | Print | Product List | Glossary On
Versions: 1 2 3 4 5 6 7 8 9 10 11 12 13 14 15
000
FTUS44 KBMX 031100
TAFMGM
TAF
KMGM 031129Z 0312/0412 00000KT 1/2SM FG OVC004
     FM031600 17003KT 4SM BR OVC008
     FM032000 19006KT 5SM BR OVC015
     FM040400 17004KT 2SM BR OVC003=

USA.gov is the U.S. government's official web portal to all federal, state and local government web resources and services.